MMSD Airport Information

Runway Information
Runway 16 Length 9843 ft width 148 ft
Elevation 374 ft Threshold 0 ft Heading 174
Runway 34 Length 9843 ft Width 148 ft
Elevation 348 ft Threshold 0 ft Heading 354
Airport Frequencies
Type APP Name SAN JOSE A Frequency 120.9 MHZ
Type ATIS Name ATIS Frequency 127.6 MHZ
Type TWR Name SAN JOSE T Frequency 118.9 MHZ
Airport Navaids
Type VOR-DME Name Cabos Frequency 114000 KHZ
Airport Weather Information & NOTAM
ADDS - METARS form results

(1449 UTC 20 April 2018)
Data provider http://aviationweather.gov/adds/metars/
 
Forecast for: MMSD (SAN JOSE DEL CAB, MX)
Text: TAF MMSD 200434Z 2006/2106 13005KT P6SM SCT250
Forecast period: 0600 to 1800 UTC 20 April 2018
Forecast type: FROM: standard forecast or significant change
Winds: from the SE (130 degrees) at 6 MPH (5 knots; 2.6 m/s)
Visibility: 6 or more miles (10+ km)
Clouds: scattered clouds at 25000 feet AGL
Weather: no significant weather forecast for this period
Forecast for: MMSD (SAN JOSE DEL CAB, MX)
Text: TAF MMSD 200434Z 2006/2106 13005KT P6SM SCT250
Forecast period: 0600 to 1800 UTC 20 April 2018
Forecast type: FROM: standard forecast or significant change
Winds: from the SE (130 degrees) at 6 MPH (5 knots; 2.6 m/s)
Visibility: 6 or more miles (10+ km)
Clouds: scattered clouds at 25000 feet AGL
Weather: no significant weather forecast for this period
Forecast for: MMSD (SAN JOSE DEL CAB, MX)
Text: TAF MMSD 200434Z 2006/2106 13005KT P6SM SCT250
Forecast period: 1800 UTC 20 April 2018 to 0200 UTC 21 April 2018
Forecast type: FROM: standard forecast or significant change
Winds: from the WNW (300 degrees) at 12 MPH (10 knots; 5.2 m/s)
Visibility: 6 or more miles (10+ km)
Ceiling: 25000 feet AGL
Clouds: broken clouds at 25000 feet AGL
Weather: no significant weather forecast for this period
Forecast for: MMSD (SAN JOSE DEL CAB, MX)
Text: TAF MMSD 200434Z 2006/2106 13005KT P6SM SCT250
Forecast period: 1800 UTC 20 April 2018 to 0200 UTC 21 April 2018
Forecast type: FROM: standard forecast or significant change
Winds: from the WNW (300 degrees) at 12 MPH (10 knots; 5.2 m/s)
Visibility: 6 or more miles (10+ km)
Ceiling: 25000 feet AGL
Clouds: broken clouds at 25000 feet AGL
Weather: no significant weather forecast for this period
Forecast for: MMSD (SAN JOSE DEL CAB, MX)
Text: TAF MMSD 200434Z 2006/2106 13005KT P6SM SCT250
Forecast period: 0200 to 0600 UTC 21 April 2018
Forecast type: FROM: standard forecast or significant change
Winds: from the SSE (150 degrees) at 6 MPH (5 knots; 2.6 m/s)
Visibility: 6 or more miles (10+ km)
Ceiling: 25000 feet AGL
Clouds: overcast cloud deck at 25000 feet AGL
Weather: no significant weather forecast for this period
Forecast for: MMSD (SAN JOSE DEL CAB, MX)
Text: TAF MMSD 200434Z 2006/2106 13005KT P6SM SCT250
Forecast period: 0200 to 0600 UTC 21 April 2018
Forecast type: FROM: standard forecast or significant change
Winds: from the SSE (150 degrees) at 6 MPH (5 knots; 2.6 m/s)
Visibility: 6 or more miles (10+ km)
Ceiling: 25000 feet AGL
Clouds: overcast cloud deck at 25000 feet AGL
Weather: no significant weather forecast for this period